Time;durP1;ratioP1;P1;durP2;ratioP2;P2;SDS_P1;SDS_P2;PMS_P1;PMS_P2;Temp;Humidity;BMP_temperature;BMP_pressure;BME280_temperature;BME280_humidity;BME280_pressure;Samples;Min_cycle;Max_cycle;Signal;HPM_P1;HPM_P2
2022/06/09 00:00:08;;;;;;;8.35;2.35;;;;;;;17.62;63.28;97449.94;1810433;79;21505;-60
2022/06/09 00:02:35;;;;;;;4.35;2.67;;;;;;;17.60;63.31;97450.86;1810718;78;21202;-61
2022/06/09 00:05:04;;;;;;;5.40;2.50;;;;;;;17.59;63.29;97448.52;1810237;79;20916;-58
2022/06/09 00:07:30;;;;;;;8.45;2.60;;;;;;;17.58;63.37;97445.02;1799500;79;20951;-61
2022/06/09 00:10:04;;;;;;;5.00;2.60;;;;;;;17.59;63.41;97448.52;1810389;78;20858;-59
2022/06/09 00:12:31;;;;;;;10.28;2.55;;;;;;;17.58;63.45;97446.37;1810148;78;20986;-60
2022/06/09 00:14:59;;;;;;;2.98;2.27;;;;;;;17.54;63.60;97446.85;1799733;79;21750;-61
2022/06/09 00:17:26;;;;;;;6.67;2.62;;;;;;;17.54;63.63;97448.77;1810340;79;20833;-58
2022/06/09 00:19:52;;;;;;;8.43;2.35;;;;;;;17.52;64.14;97450.45;1810442;78;20877;-59
2022/06/09 00:22:19;;;;;;;4.17;2.83;;;;;;;17.43;64.62;97446.33;1810283;79;20877;-58
2022/06/09 00:24:45;;;;;;;5.97;2.30;;;;;;;17.37;64.60;97447.70;1810440;78;20838;-58
2022/06/09 00:27:14;;;;;;;8.13;2.50;;;;;;;17.36;65.19;97441.49;1810409;78;21392;-61
2022/06/09 00:29:40;;;;;;;4.20;2.42;;;;;;;17.30;65.57;97441.54;1810426;78;21471;-61
2022/06/09 00:32:08;;;;;;;3.62;2.40;;;;;;;17.19;65.98;97441.83;1810411;78;20892;-63
2022/06/09 00:34:35;;;;;;;9.43;2.80;;;;;;;17.10;66.34;97445.23;1810288;79;21001;-59
2022/06/09 00:37:02;;;;;;;5.75;2.52;;;;;;;16.99;66.65;97450.36;1810409;79;21057;-61
2022/06/09 00:39:29;;;;;;;5.60;2.58;;;;;;;16.89;66.85;97442.73;1810390;79;21093;-63
2022/06/09 00:41:56;;;;;;;3.30;2.62;;;;;;;16.84;67.29;97442.20;1810224;79;20865;-63
2022/06/09 00:44:29;;;;;;;4.78;2.77;;;;;;;16.80;67.47;97434.53;1810291;79;20869;-61
2022/06/09 00:47:02;;;;;;;5.62;2.37;;;;;;;16.76;67.73;97439.06;1810379;79;21467;-58
2022/06/09 00:49:34;;;;;;;5.33;2.60;;;;;;;16.74;67.55;97437.27;1810438;79;21377;-59
2022/06/09 00:52:02;;;;;;;5.65;3.12;;;;;;;16.74;67.89;97436.71;1810579;78;21370;-61
2022/06/09 00:54:43;;;;;;;4.28;2.50;;;;;;;16.64;68.26;97435.04;1812981;78;20865;-57
2022/06/09 00:57:27;;;;;;;5.80;2.67;;;;;;;16.51;68.65;97436.97;1815999;79;20861;-58
2022/06/09 00:59:58;;;;;;;4.22;2.87;;;;;;;16.41;68.88;97436.88;1815768;78;20869;-62
2022/06/09 01:02:24;;;;;;;4.03;2.58;;;;;;;16.44;68.96;97432.68;1816354;78;21419;-58
2022/06/09 01:04:52;;;;;;;5.95;2.72;;;;;;;16.53;68.82;97431.25;1815864;79;21103;-63
2022/06/09 01:07:26;;;;;;;3.08;2.40;;;;;;;16.61;68.61;97431.66;1815805;79;20896;-63
2022/06/09 01:09:53;;;;;;;4.33;2.90;;;;;;;16.66;68.49;97433.56;1816131;78;21419;-63
2022/06/09 01:12:33;;;;;;;4.50;2.83;;;;;;;16.70;68.18;97429.62;1815836;79;20952;-63
2022/06/09 01:15:04;;;;;;;4.62;2.83;;;;;;;16.73;68.06;97426.22;1815912;79;20853;-61
2022/06/09 01:17:58;;;;;;;3.65;2.90;;;;;;;16.76;68.05;97429.59;1816052;78;21434;-59
2022/06/09 01:20:33;;;;;;;7.03;2.75;;;;;;;16.74;67.90;97426.45;1815836;78;20873;-58
2022/06/09 01:23:37;;;;;;;;;;;;;;;16.74;67.78;97419.69;1818822;78;21407;-62
2022/06/09 01:26:16;;;;;;;5.67;2.85;;;;;;;16.73;67.78;97421.60;1815969;79;20108;-57
2022/06/09 01:29:21;;;;;;;4.42;2.60;;;;;;;16.73;67.73;97422.16;1816098;79;21510;-59
2022/06/09 01:32:05;;;;;;;7.42;3.00;;;;;;;16.71;67.66;97423.87;1815734;78;20995;-58
2022/06/09 01:34:47;;;;;;;5.77;2.87;;;;;;;16.69;67.64;97415.31;1814940;79;20936;-58
2022/06/09 01:37:21;;;;;;;6.50;2.70;;;;;;;16.69;67.58;97415.88;1815981;78;20947;-63
2022/06/09 01:40:00;;;;;;;6.08;2.90;;;;;;;16.70;67.62;97416.11;1804891;78;20853;-63
2022/06/09 01:42:40;;;;;;;6.35;2.95;;;;;;;16.73;67.61;97415.41;1815865;79;20916;-63
2022/06/09 01:45:26;;;;;;;5.10;2.90;;;;;;;16.76;67.66;97420.13;1815965;79;21260;-65
2022/06/09 01:48:04;;;;;;;6.50;3.05;;;;;;;16.78;67.45;97418.66;1816089;78;20900;-60
2022/06/09 01:51:09;;;;;;;5.83;2.20;;;;;;;16.81;67.25;97421.25;1815926;79;21059;-62
2022/06/09 01:53:53;;;;;;;4.70;2.67;;;;;;;16.82;67.08;97416.83;1815885;79;20872;-59
2022/06/09 01:56:31;;;;;;;5.78;2.87;;;;;;;16.82;66.98;97420.09;1815970;79;20865;-61
2022/06/09 01:59:03;;;;;;;4.65;2.58;;;;;;;16.80;66.90;97422.36;1816233;79;21103;-63
2022/06/09 02:01:36;;;;;;;5.67;2.50;;;;;;;16.81;66.87;97428.01;1815775;79;20867;-61
2022/06/09 02:04:05;;;;;;;6.12;2.72;;;;;;;16.80;66.76;97425.06;1805266;79;20955;-64
2022/06/09 02:06:32;;;;;;;4.20;2.50;;;;;;;16.76;66.83;97426.34;1815786;79;21477;-62
2022/06/09 02:09:00;;;;;;;6.55;2.75;;;;;;;16.73;66.90;97428.92;1815842;79;20872;-63
2022/06/09 02:11:28;;;;;;;5.28;3.05;;;;;;;16.70;66.97;97433.69;1815889;78;21230;-61
2022/06/09 02:13:56;;;;;;;8.10;2.72;;;;;;;16.66;66.97;97429.52;1815970;78;21462;-63
2022/06/09 02:16:22;;;;;;;4.10;2.58;;;;;;;16.65;67.03;97433.33;1815894;79;20905;-63
2022/06/09 02:18:55;;;;;;;7.78;2.98;;;;;;;16.63;67.18;97429.42;1815786;78;20912;-58
2022/06/09 02:21:32;;;;;;;5.45;2.60;;;;;;;16.62;67.24;97435.95;1815845;79;21514;-59
2022/06/09 02:23:58;;;;;;;6.35;2.85;;;;;;;16.61;67.31;97434.36;1815822;78;21165;-61
2022/06/09 02:26:25;;;;;;;4.78;2.80;;;;;;;16.60;67.36;97431.45;1815849;79;20873;-58
2022/06/09 02:28:52;;;;;;;5.45;2.83;;;;;;;16.60;67.47;97435.51;1815903;78;20905;-63
2022/06/09 02:31:20;;;;;;;6.70;2.47;;;;;;;16.61;67.43;97439.77;1815822;79;21371;-64
2022/06/09 02:33:47;;;;;;;8.33;2.60;;;;;;;16.64;67.33;97439.09;1815807;79;20880;-61
2022/06/09 02:36:14;;;;;;;4.35;2.60;;;;;;;16.65;67.35;97433.92;1815793;78;21214;-59
2022/06/09 02:38:40;;;;;;;4.65;2.75;;;;;;;16.67;67.23;97436.51;1815807;79;21592;-58
2022/06/09 02:41:07;;;;;;;4.83;2.80;;;;;;;16.70;67.27;97435.04;1815786;79;20945;-61
2022/06/09 02:43:34;;;;;;;6.35;2.72;;;;;;;16.71;67.09;97439.30;1816091;78;21480;-64
2022/06/09 02:46:01;;;;;;;5.15;3.15;;;;;;;16.71;67.13;97433.33;1815794;79;21001;-58
2022/06/09 02:48:28;;;;;;;5.80;3.00;;;;;;;16.70;67.02;97434.45;1815774;79;21112;-63
2022/06/09 02:50:55;;;;;;;5.25;2.35;;;;;;;16.68;67.04;97433.22;1815992;79;21384;-58
2022/06/09 02:53:23;;;;;;;5.30;2.60;;;;;;;16.68;67.07;97434.56;1812476;78;20944;-59
2022/06/09 02:55:50;;;;;;;4.05;2.70;;;;;;;16.65;67.03;97437.98;1807888;79;20920;-59
2022/06/09 02:58:16;;;;;;;4.17;2.67;;;;;;;16.65;67.08;97437.98;1808154;78;20892;-63
2022/06/09 03:00:43;;;;;;;4.53;2.75;;;;;;;16.65;67.14;97436.62;1810345;79;21104;-61
2022/06/09 03:03:14;;;;;;;5.87;2.55;;;;;;;16.67;67.11;97435.71;1810390;78;20944;-61
2022/06/09 03:05:41;;;;;;;4.85;2.67;;;;;;;16.68;67.18;97434.01;1810623;78;20944;-59
2022/06/09 03:08:08;;;;;;;6.87;3.10;;;;;;;16.72;67.25;97440.88;1810657;78;21411;-64
2022/06/09 03:10:36;;;;;;;6.47;3.10;;;;;;;16.76;67.17;97445.27;1810691;78;21430;-65
2022/06/09 03:13:02;;;;;;;7.85;3.27;;;;;;;16.79;67.24;97442.44;1810320;79;21117;-59
2022/06/09 03:15:30;;;;;;;7.37;2.92;;;;;;;16.84;67.11;97446.26;1810361;78;21002;-59
2022/06/09 03:17:58;;;;;;;6.05;2.92;;;;;;;16.86;66.96;97442.64;1810335;78;20892;-61
2022/06/09 03:20:28;;;;;;;6.75;2.92;;;;;;;16.89;66.97;97445.98;1810659;78;21427;-64
2022/06/09 03:22:55;;;;;;;5.12;2.85;;;;;;;16.91;67.00;97443.75;1810782;79;21415;-63
2022/06/09 03:25:22;;;;;;;4.45;2.90;;;;;;;16.93;66.93;97446.31;1810519;78;21734;-63
2022/06/09 03:27:48;;;;;;;5.45;2.70;;;;;;;16.95;66.89;97452.75;1810268;78;20888;-58
2022/06/09 03:30:14;;;;;;;9.70;2.98;;;;;;;16.97;66.97;97453.19;1810407;79;20912;-62
2022/06/09 03:32:41;;;;;;;6.03;2.92;;;;;;;16.98;67.02;97458.24;1810304;79;20956;-65
2022/06/09 03:35:08;;;;;;;5.65;3.22;;;;;;;16.98;66.89;97459.59;1810449;79;20896;-64
2022/06/09 03:37:35;;;;;;;5.47;3.40;;;;;;;17.01;67.01;97462.18;1810356;78;21065;-64
2022/06/09 03:40:03;;;;;;;9.23;3.00;;;;;;;17.02;66.92;97455.66;1810353;79;20960;-59
2022/06/09 03:42:30;;;;;;;9.55;3.10;;;;;;;17.06;66.76;97464.64;1810392;79;20834;-64
2022/06/09 03:44:56;;;;;;;4.35;3.10;;;;;;;17.08;66.81;97461.81;1810378;78;21451;-63
2022/06/09 03:47:24;;;;;;;5.83;3.10;;;;;;;17.13;66.93;97467.55;1810331;79;20975;-59
2022/06/09 03:49:50;;;;;;;5.08;2.95;;;;;;;17.18;66.98;97468.66;1810320;79;21221;-59
2022/06/09 03:52:17;;;;;;;8.70;3.77;;;;;;;17.25;66.98;97458.58;1810164;79;20864;-61
2022/06/09 03:54:44;;;;;;;11.48;3.37;;;;;;;17.32;67.03;97460.12;1811955;78;20935;-65
2022/06/09 03:57:11;;;;;;;6.37;3.10;;;;;;;17.38;66.79;97458.17;1815723;78;20939;-64
2022/06/09 03:59:37;;;;;;;8.15;3.20;;;;;;;17.45;66.64;97459.70;1815883;78;20837;-62
2022/06/09 04:02:04;;;;;;;6.62;3.62;;;;;;;17.51;66.13;97458.38;1815844;79;21202;-65
2022/06/09 04:04:30;;;;;;;9.80;3.15;;;;;;;17.55;65.92;97461.95;1815754;79;21344;-63
2022/06/09 04:06:58;;;;;;;8.35;3.50;;;;;;;17.58;65.88;97454.48;1815734;79;20971;-59
2022/06/09 04:09:24;;;;;;;7.60;3.33;;;;;;;17.62;65.83;97457.27;1816112;79;21032;-59
2022/06/09 04:11:51;;;;;;;9.58;3.60;;;;;;;17.66;65.71;97456.23;1815717;79;21007;-65
2022/06/09 04:14:19;;;;;;;6.75;3.40;;;;;;;17.69;65.92;97450.13;1815839;78;20865;-61
2022/06/09 04:16:46;;;;;;;8.40;3.40;;;;;;;17.70;65.93;97457.69;1815786;78;20896;-61
2022/06/09 04:19:17;;;;;;;5.75;3.37;;;;;;;17.73;65.88;97452.34;1815848;78;20968;-66
2022/06/09 04:21:44;;;;;;;9.93;3.35;;;;;;;17.76;66.14;97453.01;1815694;79;20924;-60
2022/06/09 04:24:11;;;;;;;9.65;3.00;;;;;;;17.80;66.04;97453.67;1815751;78;20900;-61
2022/06/09 04:26:39;;;;;;;6.65;2.72;;;;;;;17.83;66.05;97450.27;1815837;79;21071;-59
2022/06/09 04:29:07;;;;;;;6.60;3.33;;;;;;;17.87;65.67;97453.28;1815640;79;20903;-59
2022/06/09 04:31:35;;;;;;;7.87;3.10;;;;;;;17.91;65.70;97456.86;1816011;78;20920;-61
2022/06/09 04:34:03;;;;;;;5.87;3.25;;;;;;;17.97;65.67;97448.67;1815980;79;20912;-62
2022/06/09 04:36:34;;;;;;;8.90;2.77;;;;;;;18.03;65.80;97449.20;1815924;78;20971;-58
2022/06/09 04:39:03;;;;;;;9.00;2.90;;;;;;;18.09;65.91;97451.28;1815996;78;21526;-63
2022/06/09 04:41:30;;;;;;;8.98;3.80;;;;;;;18.16;66.09;97449.34;1815910;79;21369;-63
2022/06/09 04:43:57;;;;;;;5.83;3.27;;;;;;;18.24;65.90;97451.84;1815968;79;21329;-59
2022/06/09 04:46:24;;;;;;;8.03;3.35;;;;;;;18.34;65.68;97451.31;1815867;79;20916;-58
2022/06/09 04:48:51;;;;;;;7.10;3.17;;;;;;;18.44;65.41;97449.98;1816249;78;21423;-63
2022/06/09 04:51:19;;;;;;;12.50;3.17;;;;;;;18.54;65.14;97456.21;1816071;78;21371;-63
2022/06/09 04:53:48;;;;;;;6.60;3.42;;;;;;;18.64;64.78;97455.67;1812295;78;21367;-61
2022/06/09 04:56:16;;;;;;;8.83;3.40;;;;;;;18.72;64.41;97449.83;1810452;79;20944;-64
2022/06/09 04:58:43;;;;;;;9.90;3.62;;;;;;;18.79;64.15;97453.48;1810413;79;20947;-60
2022/06/09 05:01:20;;;;;;;7.30;3.22;;;;;;;18.87;63.91;97448.97;1810475;79;20897;-61
2022/06/09 05:03:47;;;;;;;10.90;3.40;;;;;;;18.94;64.02;97449.90;1810464;79;21210;-63
2022/06/09 05:06:20;;;;;;;7.55;3.30;;;;;;;19.00;63.98;97448.48;1810475;79;20917;-58
2022/06/09 05:08:48;;;;;;;5.28;3.05;;;;;;;19.06;63.74;97449.76;1810505;79;20896;-64
2022/06/09 05:11:16;;;;;;;9.50;3.58;;;;;;;19.11;63.60;97450.83;1810387;78;20853;-62
2022/06/09 05:13:43;;;;;;;8.38;3.80;;;;;;;19.16;63.58;97451.11;1810448;79;20889;-58
2022/06/09 05:16:09;;;;;;;9.18;3.35;;;;;;;19.24;63.55;97449.33;1810563;78;21095;-60
2022/06/09 05:18:37;;;;;;;13.80;3.50;;;;;;;19.30;63.14;97454.10;1810467;79;21376;-62
2022/06/09 05:21:04;;;;;;;5.25;3.05;;;;;;;19.37;62.96;97448.83;1810421;79;20909;-62
2022/06/09 05:23:31;;;;;;;7.70;3.40;;;;;;;19.44;63.21;97461.75;1810387;79;20880;-61
2022/06/09 05:25:59;;;;;;;5.25;3.40;;;;;;;19.51;63.17;97449.66;1810448;79;20904;-62
2022/06/09 05:28:27;;;;;;;6.45;3.42;;;;;;;19.59;62.97;97451.37;1810403;78;21098;-64
2022/06/09 05:30:54;;;;;;;6.78;3.90;;;;;;;19.66;62.99;97451.48;1810349;78;20924;-64
2022/06/09 05:33:21;;;;;;;10.25;3.20;;;;;;;19.74;63.07;97451.23;1810511;79;20995;-65
2022/06/09 05:35:48;;;;;;;7.25;3.05;;;;;;;19.84;62.97;97448.49;1823962;78;20972;-60
2022/06/09 05:46:32;;;;;;;11.05;3.40;;;;;;;20.20;62.38;97456.08;1828470;77;21490;-65
2022/06/09 05:48:59;;;;;;;6.53;3.50;;;;;;;20.29;62.42;97454.48;1828637;78;20928;-59
2022/06/09 05:51:26;;;;;;;11.35;3.80;;;;;;;20.39;62.38;97456.02;1829452;78;20885;-60
2022/06/09 05:53:53;;;;;;;6.95;3.20;;;;;;;20.47;61.83;97450.67;1836910;77;21521;-58
2022/06/09 05:56:20;;;;;;;12.55;3.70;;;;;;;20.60;61.45;97452.02;1821586;77;20945;-65
2022/06/09 05:58:46;;;;;;;10.18;3.75;;;;;;;20.73;61.01;97454.70;1830863;77;21394;-58
2022/06/09 06:01:13;;;;;;;11.57;3.70;;;;;;;20.87;60.68;97441.28;1827291;77;20940;-58
2022/06/09 06:03:41;;;;;;;7.62;3.47;;;;;;;20.99;60.56;97447.27;1841514;77;21100;-64
2022/06/09 06:08:52;;;;;;;14.00;3.67;;;;;;;21.22;60.55;97458.06;1835259;78;21044;-62
2022/06/09 06:11:19;;;;;;;7.50;3.17;;;;;;;21.30;60.58;97461.09;1835083;78;20980;-59
2022/06/09 06:13:46;;;;;;;7.17;3.37;;;;;;;21.38;60.30;97459.23;1835242;78;20990;-60
2022/06/09 06:16:13;;;;;;;9.95;3.55;;;;;;;21.45;60.53;97456.01;1835193;78;21039;-60
2022/06/09 06:18:41;;;;;;;8.00;3.60;;;;;;;21.53;60.39;97456.27;1827427;78;20942;-61
2022/06/09 06:21:08;;;;;;;9.23;3.45;;;;;;;21.60;60.54;97456.34;1818424;78;21073;-60
2022/06/09 06:23:35;;;;;;;8.55;3.30;;;;;;;21.69;60.24;97459.53;1818809;78;21090;-57
2022/06/09 06:26:01;;;;;;;6.80;3.33;;;;;;;21.76;60.55;97459.60;1780376;80;21114;-60
2022/06/09 06:28:28;;;;;;;4.70;3.50;;;;;;;21.87;60.10;97456.23;1780727;80;21077;-60
2022/06/09 06:30:54;;;;;;;6.15;3.85;;;;;;;21.98;59.37;97459.25;1812108;79;21104;-58
2022/06/09 06:33:22;;;;;;;9.73;3.37;;;;;;;22.08;58.38;97454.47;1848016;77;21014;-61
2022/06/09 06:35:49;;;;;;;6.87;3.55;;;;;;;22.24;58.31;97463.73;1830747;77;21070;-61
2022/06/09 06:38:16;;;;;;;4.90;2.98;;;;;;;22.36;58.08;97467.53;1827907;77;21574;-61
2022/06/09 06:40:45;;;;;;;8.35;3.60;;;;;;;22.47;57.35;97466.44;1838423;76;20967;-58
2022/06/09 06:43:16;;;;;;;9.83;3.70;;;;;;;22.59;57.20;97463.97;1824435;77;21567;-60
2022/06/09 06:45:52;;;;;;;8.03;3.25;;;;;;;22.70;56.95;97457.25;1822134;77;20937;-60
2022/06/09 06:48:19;;;;;;;6.00;3.25;;;;;;;22.82;56.71;97457.69;1823368;77;21356;-63
2022/06/09 06:50:46;;;;;;;7.72;3.22;;;;;;;22.91;56.61;97459.52;1821197;77;21025;-62
2022/06/09 06:53:13;;;;;;;9.13;3.45;;;;;;;23.02;56.62;97450.78;1822709;77;21030;-61
2022/06/09 06:55:45;;;;;;;10.63;3.15;;;;;;;23.13;55.33;97454.32;1843081;77;21674;-61
2022/06/09 06:58:17;;;;;;;9.23;3.15;;;;;;;23.23;55.58;97452.01;1826866;77;21519;-59
2022/06/09 07:00:44;;;;;;;8.65;3.15;;;;;;;23.34;54.41;97459.67;1818027;77;21082;-60
2022/06/09 07:03:11;;;;;;;9.33;3.75;;;;;;;23.44;54.10;97450.16;1825624;77;21079;-57
2022/06/09 07:05:38;;;;;;;5.83;3.37;;;;;;;23.54;53.27;97458.97;1823946;77;21069;-58
2022/06/09 07:08:06;;;;;;;10.35;3.17;;;;;;;23.65;53.44;97454.87;1821191;77;21117;-63
2022/06/09 07:10:34;;;;;;;7.25;2.90;;;;;;;23.76;52.23;97466.62;1827164;77;20980;-59
2022/06/09 07:13:01;;;;;;;7.62;3.83;;;;;;;23.87;51.56;97457.84;1824092;77;21461;-58
2022/06/09 07:15:29;;;;;;;6.80;3.50;;;;;;;23.98;50.33;97461.36;1832830;77;21487;-59
2022/06/09 07:17:57;;;;;;;10.38;3.98;;;;;;;24.04;50.23;97458.45;1834840;77;21105;-64
2022/06/09 07:20:26;;;;;;;9.55;3.47;;;;;;;24.15;50.60;97467.45;1826558;77;21248;-65
2022/06/09 07:22:54;;;;;;;9.20;3.20;;;;;;;24.26;50.09;97462.76;1826395;77;21080;-61
2022/06/09 07:25:25;;;;;;;10.55;3.27;;;;;;;24.39;49.73;97461.20;1841827;77;21039;-63
2022/06/09 07:27:56;;;;;;;6.53;2.70;;;;;;;24.54;49.01;97457.06;1838015;77;21046;-58
2022/06/09 07:30:26;;;;;;;15.58;3.25;;;;;;;24.54;49.01;97457.06;1826864;77;20984;-62
2022/06/09 07:32:58;;;;;;;5.90;2.80;;;;;;;24.61;49.13;97459.80;1829577;77;21072;-58
2022/06/09 07:35:31;;;;;;;6.78;2.95;;;;;;;24.68;48.85;97461.14;1825602;77;20965;-60
2022/06/09 07:38:00;;;;;;;11.57;3.15;;;;;;;24.75;47.94;97450.96;1825087;77;21112;-58
2022/06/09 07:40:32;;;;;;;6.12;2.72;;;;;;;24.79;46.33;97457.81;1822988;77;21124;-59
2022/06/09 07:43:03;;;;;;;8.28;3.50;;;;;;;24.82;45.82;97459.19;1826526;77;21064;-56
2022/06/09 07:45:31;;;;;;;8.38;3.17;;;;;;;24.84;46.40;97449.98;1817064;77;21685;-60
2022/06/09 07:47:58;;;;;;;9.13;3.60;;;;;;;24.84;46.19;97449.98;1818718;77;21095;-59
2022/06/09 07:50:31;;;;;;;7.40;3.40;;;;;;;24.86;46.68;97453.10;1831723;77;21360;-60
2022/06/09 07:53:02;;;;;;;7.10;3.40;;;;;;;24.92;47.40;97453.45;1831280;77;21054;-58
2022/06/09 07:55:30;;;;;;;10.25;3.60;;;;;;;24.99;47.21;97455.58;1805441;77;21071;-59
2022/06/09 07:57:57;;;;;;;10.15;3.20;;;;;;;25.07;44.43;97454.98;1806256;78;21214;-56
2022/06/09 08:00:27;;;;;;;11.95;4.30;;;;;;;25.16;41.36;97459.44;1784494;78;21054;-58
2022/06/09 08:02:55;;;;;;;10.78;4.25;;;;;;;25.28;41.57;97452.72;1803181;79;20990;-57
2022/06/09 08:05:24;;;;;;;6.30;2.70;;;;;;;25.41;41.88;97457.38;1805823;79;21395;-59
2022/06/09 08:07:50;;;;;;;4.30;2.20;;;;;;;25.52;40.86;97456.75;1808245;79;21058;-58
2022/06/09 08:10:20;;;;;;;7.42;3.05;;;;;;;25.52;40.86;97456.75;1803625;79;21105;-57
2022/06/09 08:12:51;;;;;;;6.03;2.27;;;;;;;25.42;40.69;97456.17;1807335;79;21002;-64
2022/06/09 08:15:19;;;;;;;7.00;2.40;;;;;;;25.37;39.74;97461.29;1806085;79;20996;-64
2022/06/09 08:17:46;;;;;;;9.13;2.27;;;;;;;25.27;39.08;97463.52;1808792;79;21050;-59
2022/06/09 08:20:14;;;;;;;5.72;2.47;;;;;;;25.22;39.28;97462.55;1805735;78;21515;-60
2022/06/09 08:22:43;;;;;;;9.85;2.40;;;;;;;25.28;39.57;97445.88;1806165;79;21060;-58
2022/06/09 08:25:12;;;;;;;5.25;2.45;;;;;;;25.39;39.39;97463.06;1791998;79;21489;-61
2022/06/09 08:27:39;;;;;;;3.90;1.82;;;;;;;25.50;37.83;97452.26;1786856;78;20938;-61
2022/06/09 08:30:07;;;;;;;4.78;2.10;;;;;;;25.57;37.57;97465.92;1798302;79;21033;-61
2022/06/09 08:32:34;;;;;;;5.40;2.33;;;;;;;25.66;38.14;97471.74;1758039;81;21132;-63
2022/06/09 08:35:01;;;;;;;6.95;2.12;;;;;;;25.73;38.08;97474.44;1726406;82;21669;-57
2022/06/09 08:37:27;;;;;;;4.12;2.10;;;;;;;25.81;37.26;97469.08;1763791;79;21422;-59
2022/06/09 08:39:54;;;;;;;6.97;2.30;;;;;;;25.92;37.69;97469.61;1765498;81;21123;-62
2022/06/09 08:42:41;;;;;;;7.35;2.33;;;;;;;25.99;37.63;97469.55;1801551;77;21019;-62
2022/06/09 08:45:17;;;;;;;8.18;2.12;;;;;;;25.93;37.47;97468.44;1821921;77;21106;-60
2022/06/09 08:47:48;;;;;;;13.30;3.25;;;;;;;25.83;37.26;97465.95;1818259;78;21068;-60
2022/06/09 08:50:37;;;;;;;5.03;2.17;;;;;;;25.89;37.61;97477.27;1795365;78;21028;-62
2022/06/09 08:53:12;;;;;;;8.45;2.30;;;;;;;26.01;36.98;97470.72;1807127;77;21110;-59
2022/06/09 08:55:55;;;;;;;9.25;2.83;;;;;;;26.04;37.04;97470.50;1823326;77;20910;-63
2022/06/09 08:58:43;;;;;;;6.53;2.60;;;;;;;26.09;38.25;97474.98;1822596;77;21445;-63
2022/06/09 09:01:42;;;;;;;4.70;2.25;;;;;;;26.22;37.74;97458.81;1830519;77;20982;-62
2022/06/09 09:04:35;;;;;;;6.35;2.33;;;;;;;26.29;37.38;97472.47;1829412;77;20990;-61
2022/06/09 09:07:25;;;;;;;3.15;2.10;;;;;;;26.33;37.92;97478.73;1829792;77;21073;-58
2022/06/09 09:09:50;;;;;;;4.80;2.20;;;;;;;26.45;37.90;97465.84;1827084;76;21078;-57
2022/06/09 09:12:49;;;;;;;7.45;2.40;;;;;;;26.56;36.96;97470.67;1829623;77;21587;-56
2022/06/09 09:15:30;;;;;;;6.83;2.10;;;;;;;26.65;36.67;97468.22;1824438;77;21118;-58
2022/06/09 09:18:19;;;;;;;6.15;2.20;;;;;;;26.77;36.73;97460.08;1820588;77;21573;-58
2022/06/09 09:21:07;;;;;;;5.67;2.17;;;;;;;26.89;36.86;97465.84;1812143;77;21056;-60
2022/06/09 09:23:49;;;;;;;4.10;2.20;;;;;;;27.03;36.94;97469.02;1827721;77;21204;-61
2022/06/09 09:26:33;;;;;;;7.15;2.22;;;;;;;27.06;36.93;97473.70;1835251;77;21090;-61
2022/06/09 09:29:29;;;;;;;6.17;2.20;;;;;;;27.00;37.09;97465.11;1819251;77;21184;-58
2022/06/09 09:32:16;;;;;;;5.87;2.70;;;;;;;26.97;36.70;97463.18;1828951;77;21490;-55
2022/06/09 09:34:45;;;;;;;4.40;1.90;;;;;;;27.03;36.37;97464.89;1824307;77;21035;-61
2022/06/09 09:37:38;;;;;;;10.58;2.20;;;;;;;27.09;35.52;97461.86;1822892;77;21079;-57
2022/06/09 09:40:13;;;;;;;6.17;2.05;;;;;;;27.11;36.50;97460.27;1828960;77;21115;-56
2022/06/09 09:42:42;;;;;;;5.53;2.08;;;;;;;27.14;35.47;97463.57;1826947;77;21216;-58
2022/06/09 09:45:20;;;;;;;8.68;2.00;;;;;;;27.14;34.77;97460.82;1827627;77;21012;-58
2022/06/09 09:47:54;;;;;;;5.15;1.87;;;;;;;27.19;34.98;97462.33;1831356;77;21059;-60
2022/06/09 09:50:37;;;;;;;4.55;1.90;;;;;;;27.26;35.71;97465.58;1826932;77;21042;-58
2022/06/09 09:53:26;;;;;;;3.12;1.92;;;;;;;27.37;34.95;97466.25;1826942;77;21012;-55
2022/06/09 09:56:05;;;;;;;5.95;2.00;;;;;;;27.42;35.17;97458.33;1816543;77;21543;-62
2022/06/09 09:58:39;;;;;;;2.12;1.60;;;;;;;27.49;34.58;97469.23;1818458;78;20994;-61
2022/06/09 10:01:26;;;;;;;2.58;1.72;;;;;;;27.53;33.70;97459.57;1811463;78;20963;-59
2022/06/09 10:09:49;;;;;;;4.70;1.90;;;;;;;27.73;34.83;97464.58;1796332;79;21074;-62
2022/06/09 10:12:29;;;;;;;6.40;2.05;;;;;;;27.75;34.40;97464.94;1803050;78;21040;-58
2022/06/09 10:15:07;;;;;;;3.75;1.70;;;;;;;27.78;34.90;97458.61;1812811;77;21467;-60
2022/06/09 10:18:02;;;;;;;6.97;2.08;;;;;;;27.90;33.39;97456.66;1811147;77;21049;-59
2022/06/09 10:21:09;;;;;;;4.83;1.90;;;;;;;28.02;33.65;97457.48;1774234;78;21101;-60
2022/06/09 10:24:00;;;;;;;6.10;2.20;;;;;;;28.05;33.02;97458.63;1819736;77;21067;-63
2022/06/09 10:26:33;;;;;;;7.17;2.65;;;;;;;27.95;34.67;97450.69;1786326;78;20965;-59
2022/06/09 10:29:36;;;;;;;11.08;4.30;;;;;;;27.88;34.23;97445.89;1794221;78;21548;-59
2022/06/09 10:32:27;;;;;;;6.67;2.80;;;;;;;27.76;34.46;97451.38;1802135;78;21825;-63
2022/06/09 10:35:08;;;;;;;6.50;2.30;;;;;;;27.74;34.80;97451.02;1801511;78;21519;-61
2022/06/09 10:37:45;;;;;;;4.03;1.92;;;;;;;27.87;34.09;97451.98;1770859;79;21773;-62
2022/06/09 10:40:30;;;;;;;5.42;2.15;;;;;;;28.00;34.26;97452.22;1793350;78;21002;-57
2022/06/09 10:43:40;;;;;;;4.67;2.15;;;;;;;27.98;34.39;97452.59;1799925;78;20912;-57
2022/06/09 10:46:37;;;;;;;5.67;2.25;;;;;;;27.96;33.55;97453.61;1808371;78;20983;-58
2022/06/09 10:55:29;;;;;;;11.73;2.17;;;;;;;28.03;32.38;97446.64;1803806;78;21031;-57
2022/06/09 10:58:05;;;;;;;;;;;;;;;28.09;33.51;97442.23;1802620;78;20969;-59
2022/06/09 11:00:36;;;;;;;5.28;2.22;;;;;;;28.19;32.13;97449.52;1801828;78;20194;-63
2022/06/09 11:03:24;;;;;;;5.67;2.15;;;;;;;28.22;33.25;97450.06;1810847;78;21088;-57
2022/06/09 11:06:17;;;;;;;5.72;1.90;;;;;;;28.29;32.80;97447.20;1759098;78;21112;-58
2022/06/09 11:08:58;;;;;;;4.33;1.92;;;;;;;28.30;31.97;97439.72;1789178;78;21110;-63
2022/06/09 11:11:54;;;;;;;4.50;1.72;;;;;;;28.22;32.25;97429.42;1810537;78;21036;-62
2022/06/09 11:15:05;;;;;;;5.85;2.00;;;;;;;28.19;31.80;97445.39;1783917;78;21642;-59
2022/06/09 11:17:45;;;;;;;6.12;2.22;;;;;;;28.18;31.49;97434.80;1796603;78;21603;-62
2022/06/09 11:20:27;;;;;;;7.10;2.20;;;;;;;28.23;32.65;97439.25;1792087;78;21537;-54
2022/06/09 11:23:11;;;;;;;7.75;2.50;;;;;;;28.36;32.26;97440.19;1798527;78;21485;-59
2022/06/09 11:26:02;;;;;;;4.80;2.15;;;;;;;28.50;32.32;97434.27;1776145;77;21433;-59
2022/06/09 11:28:57;;;;;;;4.12;2.08;;;;;;;28.71;32.58;97429.77;1812725;78;21051;-59
2022/06/09 11:31:52;;;;;;;4.55;2.42;;;;;;;28.84;31.98;97427.92;1809490;78;20984;-60
2022/06/09 11:34:58;;;;;;;4.60;1.80;;;;;;;28.98;31.72;97424.29;1794514;79;21204;-62
2022/06/09 11:37:51;;;;;;;6.03;2.22;;;;;;;29.20;30.81;97430.17;1818394;78;20916;-57
2022/06/09 11:40:38;;;;;;;8.10;1.95;;;;;;;29.38;30.31;97427.80;1796754;79;21076;-54
2022/06/09 11:43:30;;;;;;;9.15;2.00;;;;;;;29.56;30.01;97424.67;1778126;79;21063;-63
2022/06/09 11:46:05;;;;;;;3.20;1.80;;;;;;;29.69;30.10;97426.32;1762834;81;21503;-56
2022/06/09 11:48:43;;;;;;;4.58;1.77;;;;;;;29.89;29.42;97421.37;1763002;81;21171;-58
2022/06/09 11:51:10;;;;;;;14.60;2.50;;;;;;;30.05;29.86;97404.80;1757967;81;37495;-61
2022/06/09 11:53:41;;;;;;;6.95;3.00;;;;;;;30.25;29.89;97412.36;1746095;80;21573;-61
2022/06/09 11:56:43;;;;;;;14.00;2.50;;;;;;;30.35;29.99;97421.02;1808509;78;21459;-62
2022/06/09 11:59:23;;;;;;;7.25;2.00;;;;;;;30.40;29.59;97421.88;1816591;78;21540;-61
2022/06/09 12:02:07;;;;;;;5.42;2.27;;;;;;;30.51;29.38;97414.67;1774839;80;21135;-61
2022/06/09 12:04:58;;;;;;;4.90;2.02;;;;;;;30.56;28.96;97409.41;1699601;82;21134;-59
2022/06/09 12:07:45;;;;;;;5.97;2.15;;;;;;;30.68;28.98;97407.30;1803329;79;21004;-57
2022/06/09 12:10:35;;;;;;;5.80;1.90;;;;;;;30.75;29.76;97411.25;1802313;77;21568;-62
2022/06/09 12:13:25;;;;;;;5.87;1.70;;;;;;;30.66;29.29;97418.02;1804022;79;21046;-57
2022/06/09 12:16:05;;;;;;;4.45;2.00;;;;;;;30.66;29.39;97419.41;1803655;79;21166;-63
2022/06/09 12:18:37;;;;;;;5.80;2.00;;;;;;;30.83;29.91;97415.35;1826702;77;21027;-61
2022/06/09 12:21:18;;;;;;;5.25;1.80;;;;;;;31.12;29.76;97411.20;1826348;77;20904;-61
2022/06/09 12:24:05;;;;;;;9.98;2.10;;;;;;;31.26;28.76;97402.49;1844772;77;21054;-59
2022/06/09 12:26:48;;;;;;;3.85;1.57;;;;;;;31.31;29.55;97399.78;1845940;77;21118;-58